Fishertown, PA (15539)

11:13 AM EDT on August 25, 2016 (GMT -0400)
Ridgewood Heights | | Change Station

Elev 1493 ft 40.14 °N, 78.60 °W | Updated 13 minutes ago

Mostly Cloudy
Mostly Cloudy
79.2 °F
Feels Like 82 °F
N
7.0
Wind Variable Wind from South
Gusts 11.0 mph

Today
High -- | Low -- °F
--% Chance of Precip.
Yesterday
High -- | Low -- °F
Precip. -- in
Pressure 30.09 in
Visibility 10.0 miles
Clouds Mostly Cloudy 2800 ft
Mostly Cloudy 3200 ft
Mostly Cloudy 4000 ft
Heat Index 82 °F
Dew Point 72 °F
Humidity 79%
Rainfall 0.00 in
Snow Depth Not available.
6:35 AM 7:56 PM
Last Quarter, 45% visible
METAR KHMZ 251455Z AUTO 10005KT 10SM BKN028 BKN032 BKN040 25/20 A3009 RMK AO2 T02470201
Pressure 30.09 in
Visibility 10.0 miles
Clouds Mostly Cloudy 2800 ft
Mostly Cloudy 3200 ft
Mostly Cloudy 4000 ft
Heat Index 82 °F
Dew Point 72 °F
Humidity 79%
Rainfall 0.00 in
Snow Depth Not available.
6:35 AM 7:56 PM
Last Quarter, 45% visible
METAR KHMZ 251455Z AUTO 10005KT 10SM BKN028 BKN032 BKN040 25/20 A3009 RMK AO2 T02470201

10-Day Weather Forecast

Almanac

Astronomy

Aug. 25, 2016 Rise Set
Actual Time
Civil Twilight
Nautical Twilight
Astronomical Twilight
Moon
Length of Visible Light
Length of Day
Tomorrow will be .
, % of the Moon is Illuminated

Today's Extremes

State Highs State Lows

Community

WunderPhotos

Upload Photos

1,934,856 photos uploaded!

WunderBlog® & News

Nearby

Air Quality

  Air Quality AQ Index Pollutant
Not available.

Snow Depth

Station Depth Elevation

Earthquake Activity

City Distance Mag. Time & Date
Minimum magnitude displayed is 2.5.

Coastal Water Temperatures

Place Temperature

Stations

Nearby Weather Stations

Station Location Temp. Windchill Dew Point Humidity Wind Precip. Elev Updated Type
                   

Watches & Warnings

There are currently no watches in effect.